Time;durP1;ratioP1;P1;durP2;ratioP2;P2;SDS_P1;SDS_P2;PMS_P1;PMS_P2;Temp;Humidity;BMP_temperature;BMP_pressure;BME280_temperature;BME280_humidity;BME280_pressure;Samples;Min_cycle;Max_cycle;Signal;HPM_P1;HPM_P2
2021/04/12 00:00:00;;;;;;;7.70;4.30;;;;;;;9.75;35.64;101274.48;1764263;80;21162;-66
2021/04/12 00:03:08;;;;;;;7.17;4.28;;;;;;;9.80;35.32;101266.59;1756783;80;21122;-67
2021/04/12 00:05:43;;;;;;;6.33;3.80;;;;;;;9.79;35.28;101264.42;1761817;81;21316;-67
2021/04/12 00:08:31;;;;;;;6.78;3.77;;;;;;;9.75;35.38;101257.39;1761946;80;21155;-67
2021/04/12 00:11:38;;;;;;;6.08;4.00;;;;;;;9.71;35.41;101256.92;1760880;81;21139;-68
2021/04/12 00:14:40;;;;;;;5.70;3.90;;;;;;;9.68;35.47;101254.27;1760566;81;21138;-51
2021/04/12 00:17:13;;;;;;;6.78;4.00;;;;;;;8.91;36.80;101251.98;1722428;81;21107;-66
2021/04/12 00:20:05;;;;;;;8.50;4.58;;;;;;;8.87;36.93;101256.34;1760984;81;21142;-50
2021/04/12 00:22:40;;;;;;;7.58;4.17;;;;;;;8.86;37.12;101245.81;1762174;81;21168;-66
2021/04/12 00:25:32;;;;;;;9.03;4.35;;;;;;;8.84;37.15;101249.75;1761661;81;21147;-50
2021/04/12 00:28:11;;;;;;;7.55;4.15;;;;;;;8.77;37.29;101246.62;1761911;81;21147;-66
2021/04/12 00:30:59;;;;;;;8.40;4.30;;;;;;;8.80;37.29;101240.08;1762024;81;21162;-50
2021/04/12 00:33:38;;;;;;;7.72;3.92;;;;;;;8.78;37.37;101233.52;1717843;83;21142;-67
2021/04/12 00:36:16;;;;;;;7.37;4.03;;;;;;;8.78;37.49;101233.52;1690813;84;21195;-69
2021/04/12 00:39:01;;;;;;;7.08;4.05;;;;;;;8.71;37.70;101230.39;1725442;82;21206;-50
2021/04/12 00:41:58;;;;;;;8.58;4.80;;;;;;;8.69;37.74;101232.53;1716913;83;21156;-69
2021/04/12 00:45:07;;;;;;;7.47;4.42;;;;;;;8.67;37.84;101229.02;1644552;83;21177;-68
2021/04/12 00:48:19;;;;;;;6.20;3.98;;;;;;;8.65;38.06;101223.77;1722015;82;21284;-69
2021/04/12 00:51:11;;;;;;;6.72;4.05;;;;;;;8.68;38.02;101218.97;1725530;83;21201;-51
2021/04/12 00:54:24;;;;;;;7.15;4.28;;;;;;;8.71;38.21;101214.64;1827265;77;23548;-48
2021/04/12 00:57:07;;;;;;;8.03;4.37;;;;;;;8.77;38.14;101218.64;1791996;80;21158;-67
2021/04/12 00:59:59;;;;;;;7.55;4.22;;;;;;;8.77;38.09;101213.39;1793454;80;21146;-67
2021/04/12 01:02:59;;;;;;;6.37;4.00;;;;;;;8.77;38.05;101209.87;1734442;81;21333;-48
2021/04/12 01:05:59;;;;;;;8.85;4.30;;;;;;;8.73;37.81;101203.73;1775961;80;21146;-51
2021/04/12 01:08:35;;;;;;;9.88;4.30;;;;;;;8.68;37.99;101204.11;1793433;80;21135;-50
2021/04/12 01:11:51;;;;;;;8.28;4.62;;;;;;;8.70;37.88;101201.48;1764279;80;21546;-68
2021/04/12 01:14:32;;;;;;;7.20;4.28;;;;;;;8.69;38.05;101193.17;1761227;81;21134;-48
2021/04/12 01:17:31;;;;;;;7.05;4.20;;;;;;;8.72;38.10;101190.57;1760362;81;21166;-49
2021/04/12 01:20:42;;;;;;;8.60;4.45;;;;;;;8.72;38.17;101185.33;1762969;80;21099;-67
2021/04/12 01:23:18;;;;;;;7.15;4.65;;;;;;;8.72;38.05;101184.01;1772877;80;21176;-67
2021/04/12 01:26:34;;;;;;;8.40;4.28;;;;;;;8.69;38.26;101187.50;1793262;80;21528;-49
2021/04/12 01:29:45;;;;;;;7.85;4.15;;;;;;;8.69;38.10;101180.94;1778358;80;21123;-49
2021/04/12 01:33:07;;;;;;;7.12;4.47;;;;;;;8.69;38.15;101174.80;1761496;81;21142;-66
2021/04/12 01:36:16;;;;;;;8.10;4.85;;;;;;;8.70;38.14;101171.30;1760226;81;21123;-66
2021/04/12 01:39:10;;;;;;;10.08;4.85;;;;;;;8.73;38.09;101167.39;1765859;80;21164;-49
2021/04/12 01:42:26;;;;;;;8.70;4.95;;;;;;;8.76;38.10;101162.17;1792289;80;21163;-66
2021/04/12 01:45:20;;;;;;;7.42;4.87;;;;;;;8.79;38.00;101160.89;1793227;80;21625;-66
2021/04/12 01:48:22;;;;;;;9.75;5.47;;;;;;;8.84;38.24;101158.28;1779820;80;21158;-67
2021/04/12 01:51:38;;;;;;;8.35;5.08;;;;;;;8.91;38.18;101156.16;1742717;81;21147;-50
2021/04/12 01:54:41;;;;;;;10.35;4.97;;;;;;;8.96;37.99;101154.44;1760420;81;21565;-67
2021/04/12 01:57:40;;;;;;;9.78;5.17;;;;;;;9.02;38.07;101157.11;1760642;80;21158;-50
2021/04/12 02:00:53;;;;;;;8.15;4.30;;;;;;;9.10;38.23;101149.72;1762820;80;21898;-67
2021/04/12 02:03:32;;;;;;;9.58;5.08;;;;;;;9.14;38.08;101155.44;1728074;81;21166;-50
2021/04/12 02:06:39;;;;;;;9.23;5.45;;;;;;;9.14;37.97;101159.37;1717074;83;21151;-49
2021/04/12 02:09:24;;;;;;;8.78;5.83;;;;;;;9.12;37.90;101157.18;1728566;82;21175;-67
2021/04/12 02:12:20;;;;;;;8.63;5.75;;;;;;;9.13;37.97;101157.17;1706974;84;21188;-59
2021/04/12 02:15:05;;;;;;;10.03;5.42;;;;;;;9.15;37.98;101154.12;1707312;84;21235;-66
2021/04/12 02:17:57;;;;;;;10.15;5.28;;;;;;;9.19;37.86;101148.47;1711650;83;21212;-49
2021/04/12 02:20:39;;;;;;;9.80;5.75;;;;;;;9.25;37.86;101155.50;1727909;83;21174;-51
2021/04/12 02:23:36;;;;;;;8.43;5.20;;;;;;;9.27;37.74;101150.71;1757869;82;21616;-51
2021/04/12 02:26:21;;;;;;;10.08;5.67;;;;;;;9.30;37.59;101149.84;1695597;83;21317;-52
2021/04/12 02:29:27;;;;;;;11.43;5.87;;;;;;;9.33;37.57;101149.41;1743517;82;21599;-50
2021/04/12 02:32:27;;;;;;;9.33;5.35;;;;;;;9.32;37.31;101145.02;1727678;83;21174;-50
2021/04/12 02:35:20;;;;;;;11.73;5.83;;;;;;;9.34;37.46;101143.73;1755638;82;21162;-51
2021/04/12 02:38:05;;;;;;;10.53;5.42;;;;;;;9.36;37.42;101149.42;1725652;83;21308;-68
2021/04/12 02:41:04;;;;;;;10.05;5.87;;;;;;;9.36;37.43;101145.93;1727214;83;21186;-50
2021/04/12 02:43:48;;;;;;;10.50;5.80;;;;;;;9.34;37.47;101141.97;1714346;82;21144;-68
2021/04/12 02:47:06;;;;;;;8.55;5.45;;;;;;;9.96;36.50;101144.84;1718324;83;21142;-51
2021/04/12 02:50:06;;;;;;;10.38;6.05;;;;;;;10.21;35.93;101149.27;1714049;84;21175;-68
2021/04/12 02:53:23;;;;;;;9.10;6.35;;;;;;;9.55;37.02;101151.25;1705688;84;21151;-68
2021/04/12 02:56:37;;;;;;;10.63;6.60;;;;;;;9.38;37.14;101145.51;1700166;83;21171;-67
2021/04/12 02:59:36;;;;;;;14.00;5.75;;;;;;;9.32;37.41;101143.70;1687444;85;21177;-51
2021/04/12 03:02:43;;;;;;;8.63;5.33;;;;;;;9.31;37.47;101141.09;1687567;85;21147;-51
2021/04/12 03:05:45;;;;;;;10.43;6.55;;;;;;;9.54;37.13;101138.56;1688424;83;21135;-68
2021/04/12 03:08:45;;;;;;;10.32;5.90;;;;;;;10.15;36.03;101130.84;1689876;84;21342;-51
2021/04/12 03:11:56;;;;;;;10.38;6.33;;;;;;;10.21;35.57;101136.12;1724662;82;21159;-52
2021/04/12 03:15:04;;;;;;;10.28;6.60;;;;;;;10.24;35.66;101133.04;1735016;82;21563;-51
2021/04/12 03:17:59;;;;;;;11.43;6.28;;;;;;;10.25;35.55;101128.22;1724495;82;21166;-68
2021/04/12 03:21:21;;;;;;;13.08;7.90;;;;;;;10.28;35.61;101131.31;1724484;83;21127;-68
2021/04/12 03:23:53;;;;;;;9.50;5.55;;;;;;;10.27;35.60;101129.55;1726767;82;21300;-51
2021/04/12 03:26:44;;;;;;;9.38;5.90;;;;;;;10.26;35.46;101124.71;1724576;83;21136;-51
2021/04/12 03:29:40;;;;;;;9.78;6.17;;;;;;;10.28;35.60;101128.67;1724565;82;21566;-68
2021/04/12 03:32:22;;;;;;;9.30;5.80;;;;;;;10.29;35.52;101124.28;1725367;82;21203;-69
2021/04/12 03:35:01;;;;;;;8.75;5.55;;;;;;;10.23;35.68;101115.95;1724768;83;21159;-68
2021/04/12 03:38:00;;;;;;;9.73;6.00;;;;;;;10.23;35.71;101114.64;1725030;83;21574;-51
2021/04/12 03:40:34;;;;;;;10.95;6.70;;;;;;;10.20;35.86;101115.95;1725239;82;21160;-54
2021/04/12 03:43:38;;;;;;;10.55;7.12;;;;;;;10.22;36.14;101116.38;1754435;82;21590;-53
2021/04/12 03:46:31;;;;;;;14.35;6.85;;;;;;;10.29;36.51;101115.96;1754756;82;21535;-68
2021/04/12 03:49:20;;;;;;;14.58;6.95;;;;;;;10.37;36.28;101110.27;1745667;81;21289;-67
2021/04/12 03:52:13;;;;;;;11.65;7.40;;;;;;;10.39;36.13;101111.61;1737389;82;21156;-69
2021/04/12 03:55:12;;;;;;;14.78;6.80;;;;;;;10.43;36.15;101111.16;1752144;80;21841;-51
2021/04/12 03:58:01;;;;;;;13.80;7.72;;;;;;;10.47;36.30;101111.59;1748454;82;21709;-68
2021/04/12 04:01:08;;;;;;;16.05;7.00;;;;;;;10.52;36.26;101110.73;1688183;85;21597;-69
2021/04/12 04:03:55;;;;;;;20.30;7.17;;;;;;;10.58;37.08;101111.16;1682005;84;21167;-50
2021/04/12 04:06:37;;;;;;;21.45;8.05;;;;;;;10.69;36.52;101113.35;1682293;84;21160;-67
2021/04/12 04:09:28;;;;;;;13.20;7.33;;;;;;;10.78;36.47;101111.14;1681995;84;21278;-51
2021/04/12 04:12:21;;;;;;;11.80;6.75;;;;;;;10.86;36.20;101109.80;1679862;84;21148;-51
2021/04/12 04:15:04;;;;;;;10.93;6.67;;;;;;;10.95;36.20;101116.38;1680254;85;21151;-51
2021/04/12 04:18:03;;;;;;;12.85;7.12;;;;;;;11.07;36.03;101112.83;1663768;85;21297;-69
2021/04/12 04:20:53;;;;;;;13.28;7.05;;;;;;;11.07;36.19;101115.91;1679713;84;21151;-68
2021/04/12 04:24:00;;;;;;;11.73;6.95;;;;;;;11.13;36.30;101120.72;1680556;84;21152;-68
2021/04/12 04:26:36;;;;;;;11.55;7.45;;;;;;;11.22;35.62;101122.89;1678959;85;21624;-67
2021/04/12 04:30:00;;;;;;;13.75;6.75;;;;;;;11.31;35.75;101120.23;1683376;84;21172;-68
2021/04/12 04:32:52;;;;;;;10.00;6.28;;;;;;;11.41;35.75;101127.23;1672894;85;21155;-69
2021/04/12 04:35:37;;;;;;;13.55;7.03;;;;;;;11.51;35.33;101122.80;1677418;85;21154;-51
2021/04/12 04:38:52;;;;;;;15.23;8.20;;;;;;;11.60;35.73;101120.55;1703008;83;21530;-67
2021/04/12 04:41:57;;;;;;;10.40;6.65;;;;;;;11.67;35.68;101128.01;1649779;85;21158;-67
2021/04/12 04:44:53;;;;;;;16.05;7.83;;;;;;;11.73;35.73;101124.89;1687050;85;21138;-67
2021/04/12 04:47:53;;;;;;;15.30;8.10;;;;;;;11.81;36.16;101131.89;1719785;83;21293;-52
2021/04/12 04:51:03;;;;;;;15.00;8.28;;;;;;;11.88;35.79;101128.34;1651191;86;21182;-67
2021/04/12 04:53:57;;;;;;;15.13;7.65;;;;;;;11.92;35.28;101123.91;1661567;85;21323;-52
2021/04/12 04:56:56;;;;;;;12.80;7.30;;;;;;;11.95;35.19;101123.43;1681389;84;21170;-67
2021/04/12 04:59:38;;;;;;;11.15;7.47;;;;;;;11.93;35.30;101123.02;1692163;85;21163;-66
2021/04/12 05:02:32;;;;;;;11.93;8.05;;;;;;;11.94;35.55;101123.00;1718713;82;21298;-67
2021/04/12 05:05:38;;;;;;;13.68;8.00;;;;;;;11.98;35.14;101122.55;1693874;83;21159;-53
2021/04/12 05:08:49;;;;;;;9.88;7.17;;;;;;;12.03;35.14;101117.70;1689674;83;21224;-53
2021/04/12 05:11:36;;;;;;;13.48;8.45;;;;;;;11.47;35.71;101117.09;1737601;82;21141;-69
2021/04/12 05:14:31;;;;;;;14.98;7.40;;;;;;;12.16;35.10;101117.17;1739051;82;21147;-69
2021/04/12 05:17:40;;;;;;;14.05;8.48;;;;;;;12.26;34.50;101115.36;1655462;85;21206;-53
2021/04/12 05:20:47;;;;;;;15.03;7.95;;;;;;;12.42;34.67;101108.19;1819659;77;22558;-67
2021/04/12 05:23:33;;;;;;;14.55;8.98;;;;;;;12.46;34.66;101105.96;1777973;80;21752;-53
2021/04/12 05:26:10;;;;;;;18.52;9.60;;;;;;;12.57;34.87;101099.72;1760743;81;21127;-53
2021/04/12 05:29:19;;;;;;;18.90;9.45;;;;;;;12.69;34.65;101102.22;1755162;81;21285;-54
2021/04/12 05:32:27;;;;;;;13.40;9.15;;;;;;;12.81;34.59;101103.00;1743749;81;21602;-69
2021/04/12 05:35:21;;;;;;;14.78;7.90;;;;;;;12.95;34.66;101103.75;1709990;83;21097;-52
2021/04/12 05:38:12;;;;;;;13.62;8.53;;;;;;;13.12;34.38;101097.38;1717953;83;21161;-52
2021/04/12 05:41:28;;;;;;;14.65;9.20;;;;;;;13.29;33.91;101102.46;1754169;81;21297;-68
2021/04/12 05:44:20;;;;;;;14.35;8.30;;;;;;;13.46;33.91;101101.86;1720564;81;21192;-52
2021/04/12 05:47:14;;;;;;;13.28;8.73;;;;;;;13.67;33.89;101105.98;1731465;81;21303;-67
2021/04/12 05:50:17;;;;;;;14.78;8.98;;;;;;;13.84;34.01;101102.24;1760985;81;21297;-68
2021/04/12 05:53:31;;;;;;;14.83;9.45;;;;;;;14.01;33.86;101091.84;1760938;81;21675;-67
2021/04/12 05:56:35;;;;;;;19.05;9.45;;;;;;;14.20;32.37;101088.02;1731960;81;21287;-52
2021/04/12 05:59:42;;;;;;;14.20;9.50;;;;;;;14.39;32.73;101089.02;1730959;82;21192;-67
2021/04/12 06:02:26;;;;;;;15.32;9.33;;;;;;;14.65;33.36;101093.02;1737553;81;21083;-50
2021/04/12 06:05:29;;;;;;;13.55;9.63;;;;;;;14.88;32.47;101083.34;1760244;81;21530;-51
2021/04/12 06:08:41;;;;;;;14.50;9.85;;;;;;;15.13;32.05;101082.85;1761016;81;21598;-66
2021/04/12 06:12:05;;;;;;;13.03;9.43;;;;;;;15.34;31.75;101070.93;1760012;81;21318;-54
2021/04/12 06:15:00;;;;;;;14.60;9.10;;;;;;;15.64;32.12;101071.63;1743563;81;21151;-51
2021/04/12 06:18:01;;;;;;;14.05;9.60;;;;;;;16.04;31.09;101088.88;1730562;83;21266;-68
2021/04/12 06:20:43;;;;;;;15.05;10.23;;;;;;;16.37;30.51;101082.75;1716277;82;21905;-67
2021/04/12 06:23:41;;;;;;;15.63;10.28;;;;;;;16.64;29.37;101086.95;1730225;82;21673;-52
2021/04/12 06:26:50;;;;;;;18.00;11.00;;;;;;;16.86;29.53;101083.27;1715256;84;21587;-66
2021/04/12 06:29:58;;;;;;;21.95;12.78;;;;;;;17.16;29.28;101086.48;1715341;84;21187;-51
2021/04/12 06:33:08;;;;;;;49.03;21.55;;;;;;;17.36;28.62;101081.44;1703487;84;21147;-52
2021/04/12 06:36:15;;;;;;;22.82;13.10;;;;;;;17.41;29.26;101074.67;1721088;82;21163;-54
2021/04/12 06:39:30;;;;;;;17.60;11.33;;;;;;;17.44;28.53;101077.20;1680326;85;21196;-54
2021/04/12 06:42:28;;;;;;;21.93;13.28;;;;;;;17.42;28.28;101074.20;1735602;82;21164;-67
2021/04/12 06:45:07;;;;;;;17.67;11.57;;;;;;;17.58;28.69;101070.16;1736587;82;21559;-67
2021/04/12 06:47:59;;;;;;;18.40;11.85;;;;;;;17.79;27.58;101072.62;1728444;82;21127;-68
2021/04/12 06:50:51;;;;;;;19.02;11.70;;;;;;;17.98;28.18;101064.91;1726715;82;21151;-67
2021/04/12 06:53:57;;;;;;;15.98;11.08;;;;;;;18.16;27.41;101065.23;1727308;82;21139;-67
2021/04/12 06:56:34;;;;;;;16.40;10.88;;;;;;;18.26;27.72;101058.69;1714798;84;21128;-52
2021/04/12 06:59:40;;;;;;;14.55;11.08;;;;;;;18.28;27.67;101059.98;1730636;82;21270;-52
2021/04/12 07:02:55;;;;;;;15.03;11.15;;;;;;;17.95;28.12;101062.34;1743402;81;21171;-68
2021/04/12 07:05:56;;;;;;;14.53;10.63;;;;;;;17.92;28.82;101067.77;1744122;82;21139;-67
2021/04/12 07:09:11;;;;;;;15.88;10.80;;;;;;;18.26;28.27;101058.69;1742755;82;21201;-67
2021/04/12 07:12:24;;;;;;;14.78;10.70;;;;;;;18.55;27.61;101064.80;1681297;84;21173;-69
2021/04/12 07:15:43;;;;;;;17.40;11.65;;;;;;;19.79;26.65;101059.86;1686094;84;21160;-69
2021/04/12 07:18:45;;;;;;;18.95;11.50;;;;;;;20.18;26.10;101055.18;1743311;81;21179;-66
2021/04/12 07:21:42;;;;;;;15.80;10.82;;;;;;;20.44;25.57;101053.19;1744462;82;21297;-67
2021/04/12 07:24:47;;;;;;;16.32;10.60;;;;;;;20.71;25.27;101044.92;1744088;81;21616;-52
2021/04/12 07:28:02;;;;;;;15.10;11.00;;;;;;;21.06;25.30;101043.82;1722608;81;21310;-52
2021/04/12 07:31:19;;;;;;;16.55;11.28;;;;;;;21.32;24.71;101045.75;1714733;84;21710;-53
2021/04/12 07:34:33;;;;;;;14.03;11.12;;;;;;;21.39;24.30;101031.13;1722337;82;21620;-53
2021/04/12 07:37:38;;;;;;;16.95;11.65;;;;;;;21.66;23.95;101021.39;1712939;83;21348;-53
2021/04/12 07:40:45;;;;;;;16.37;11.30;;;;;;;21.79;23.06;101018.52;1737144;82;21132;-68
2021/04/12 07:43:39;;;;;;;15.55;10.85;;;;;;;21.87;23.25;101023.48;1732409;82;21147;-67
2021/04/12 07:46:27;;;;;;;16.75;11.00;;;;;;;22.27;23.84;101023.30;1732685;82;21128;-67
2021/04/12 07:49:15;;;;;;;15.43;11.03;;;;;;;22.83;23.48;101019.09;1726590;82;21128;-53
2021/04/12 07:52:24;;;;;;;15.88;11.43;;;;;;;23.28;22.80;101012.19;1718957;82;21282;-53
2021/04/12 07:55:26;;;;;;;15.98;11.22;;;;;;;23.69;22.35;101008.09;1734940;82;21163;-53
2021/04/12 07:58:36;;;;;;;15.98;11.38;;;;;;;24.04;22.29;100998.95;1735771;82;21152;-53
2021/04/12 08:01:30;;;;;;;15.88;11.25;;;;;;;24.34;20.74;100992.22;1739684;82;21602;-54
2021/04/12 08:04:33;;;;;;;17.67;11.75;;;;;;;24.48;21.43;100990.52;1715925;82;21185;-67
2021/04/12 08:07:57;;;;;;;22.30;14.15;;;;;;;24.76;21.14;100986.98;1714919;84;21179;-53
2021/04/12 08:10:54;;;;;;;69.27;40.90;;;;;;;24.87;20.57;100986.80;1714655;84;21643;-54
2021/04/12 08:13:37;;;;;;;203.98;125.80;;;;;;;25.00;21.22;100989.57;1714918;82;21313;-53
2021/04/12 08:16:36;;;;;;;67.08;41.63;;;;;;;25.39;20.95;100993.34;1728525;82;21273;-66
2021/04/12 08:19:50;;;;;;;129.40;80.03;;;;;;;25.77;20.33;100986.42;1725402;81;21159;-53
2021/04/12 08:22:49;;;;;;;103.05;69.77;;;;;;;26.13;20.57;100974.14;1743442;82;21690;-54
2021/04/12 08:25:42;;;;;;;56.77;41.73;;;;;;;26.55;20.17;100971.27;1744360;82;21183;-67
2021/04/12 08:28:52;;;;;;;68.87;47.08;;;;;;;26.60;19.40;100962.83;1722422;82;21309;-53
2021/04/12 08:32:10;;;;;;;52.23;37.20;;;;;;;26.62;19.40;100964.93;1714910;84;21108;-66
2021/04/12 08:35:16;;;;;;;158.37;76.57;;;;;;;26.71;19.30;100965.13;1714590;84;21158;-53
2021/04/12 08:38:23;;;;;;;57.73;35.85;;;;;;;26.57;19.01;100958.52;1731009;82;21208;-67
2021/04/12 08:41:16;;;;;;;221.62;121.65;;;;;;;26.43;19.54;100952.26;1714465;84;21242;-53
2021/04/12 08:44:08;;;;;;;354.82;180.55;;;;;;;26.52;19.07;100956.13;1714519;84;21333;-67
2021/04/12 08:47:13;;;;;;;48.38;32.58;;;;;;;26.52;18.94;100950.73;1715317;82;21262;-67
2021/04/12 08:50:37;;;;;;;26.40;18.25;;;;;;;26.40;18.95;100951.63;1714638;83;21180;-67
2021/04/12 08:53:42;;;;;;;22.50;13.55;;;;;;;26.69;18.71;100948.68;1734246;82;21723;-53
2021/04/12 08:56:52;;;;;;;14.90;12.65;;;;;;;27.04;18.29;100941.73;1737286;82;21591;-52
2021/04/12 08:59:28;;;;;;;17.37;13.15;;;;;;;27.33;18.44;100933.30;1661528;84;21198;-54
2021/04/12 09:02:10;;;;;;;32.63;23.10;;;;;;;27.69;18.21;100929.70;1714634;83;21159;-66
2021/04/12 09:05:04;;;;;;;20.20;14.05;;;;;;;27.83;17.84;100929.12;1715507;82;21708;-67
2021/04/12 09:07:52;;;;;;;26.27;17.92;;;;;;;27.82;17.03;100920.66;1690892;82;21607;-65
2021/04/12 09:10:47;;;;;;;37.88;25.05;;;;;;;27.82;18.27;100910.69;1744201;82;21157;-53
2021/04/12 09:13:58;;;;;;;35.83;22.77;;;;;;;28.00;18.52;100913.81;1743954;82;21206;-53
2021/04/12 09:16:42;;;;;;;31.30;19.65;;;;;;;28.20;18.44;100914.13;1739906;82;21147;-66
2021/04/12 09:19:50;;;;;;;24.02;16.70;;;;;;;28.33;17.46;100905.39;1743763;82;21152;-65
2021/04/12 09:22:48;;;;;;;19.17;13.85;;;;;;;28.28;17.62;100907.59;1734138;82;21614;-53
2021/04/12 09:25:58;;;;;;;23.42;15.43;;;;;;;28.37;17.11;100907.86;1716474;82;21575;-67
2021/04/12 09:28:55;;;;;;;36.20;23.52;;;;;;;28.44;16.73;100899.15;1714958;84;21536;-53
2021/04/12 09:32:23;;;;;;;23.92;15.23;;;;;;;28.50;17.47;100906.75;1819421;77;22186;-52
2021/04/12 09:35:45;;;;;;;18.67;13.53;;;;;;;28.58;17.14;100912.05;1751686;81;21158;-65
2021/04/12 09:38:53;;;;;;;21.05;15.60;;;;;;;28.45;17.00;100903.58;1732022;83;21170;-53
2021/04/12 09:42:18;;;;;;;16.48;12.82;;;;;;;28.44;17.34;100901.86;1735209;81;21381;-66
2021/04/12 09:45:42;;;;;;;15.90;11.63;;;;;;;28.38;17.28;100897.41;1728397;83;21142;-54
2021/04/12 09:48:56;;;;;;;17.20;11.95;;;;;;;28.14;17.09;100896.52;1761817;81;21159;-53
2021/04/12 09:51:53;;;;;;;19.90;12.45;;;;;;;28.15;17.60;100888.77;1762147;81;21147;-65
2021/04/12 09:54:45;;;;;;;19.77;13.28;;;;;;;28.20;17.57;100886.56;1750679;81;21166;-66
2021/04/12 09:57:24;;;;;;;18.48;13.13;;;;;;;28.23;18.14;100885.95;1761963;81;21597;-64
2021/04/12 09:59:57;;;;;;;18.32;13.83;;;;;;;28.35;17.46;100883.64;1742196;81;21162;-66
2021/04/12 10:02:57;;;;;;;18.48;14.20;;;;;;;28.27;17.88;100886.94;1698198;84;21572;-53
2021/04/12 10:06:19;;;;;;;17.55;12.80;;;;;;;28.21;18.08;100887.45;1631270;86;21295;-52
2021/04/12 10:09:18;;;;;;;15.83;12.60;;;;;;;28.37;18.14;100874.91;1684374;84;21171;-65
2021/04/12 10:11:51;;;;;;;;;;;;;;;28.58;18.31;100871.44;1684423;84;21141;-66
2021/04/12 10:14:27;;;;;;;;;;;;;;;28.87;18.08;100873.15;1705256;84;20176;-65
2021/04/12 10:17:12;;;;;;;14.60;10.63;;;;;;;29.12;18.09;100870.25;1686949;85;20166;-53
2021/04/12 10:19:51;;;;;;;16.17;11.97;;;;;;;29.35;18.26;100871.91;1694598;84;21200;-65
2021/04/12 10:22:59;;;;;;;15.25;11.65;;;;;;;29.62;18.17;100874.64;1686734;85;21146;-66
2021/04/12 10:26:01;;;;;;;14.78;12.45;;;;;;;29.83;18.03;100870.58;1687477;84;21190;-54
2021/04/12 10:29:02;;;;;;;16.73;12.33;;;;;;;30.08;17.90;100864.89;1650871;86;21333;-54
2021/04/12 10:32:14;;;;;;;16.90;11.83;;;;;;;30.23;17.72;100860.84;1664963;84;21611;-65
2021/04/12 10:35:00;;;;;;;16.10;12.50;;;;;;;30.27;17.59;100860.90;1682665;84;21191;-66
2021/04/12 10:37:48;;;;;;;108.17;19.12;;;;;;;30.21;17.56;100867.37;1669076;86;21857;-65
2021/04/12 10:40:42;;;;;;;117.33;22.73;;;;;;;30.10;17.58;100870.53;1719075;83;21203;-53
2021/04/12 10:43:29;;;;;;;84.85;19.60;;;;;;;30.01;17.32;100865.06;1716802;83;21309;-66
2021/04/12 10:46:23;;;;;;;33.02;15.93;;;;;;;30.14;17.76;100860.28;1727468;82;21690;-53
2021/04/12 10:49:17;;;;;;;19.80;13.83;;;;;;;30.49;17.69;100859.00;1765345;81;21147;-54
2021/04/12 10:52:22;;;;;;;20.08;12.75;;;;;;;30.77;17.55;100859.24;1701195;84;21147;-53
2021/04/12 10:55:13;;;;;;;18.85;13.72;;;;;;;31.00;17.03;100863.94;1700334;84;21165;-65
2021/04/12 10:57:47;;;;;;;16.12;11.12;;;;;;;30.91;17.11;100860.69;1712538;84;21601;-66
2021/04/12 11:00:48;;;;;;;15.00;11.20;;;;;;;30.88;17.17;100861.00;1712530;84;21162;-53
2021/04/12 11:03:43;;;;;;;17.48;12.18;;;;;;;30.73;16.97;100861.88;1712525;84;21637;-66
2021/04/12 11:06:46;;;;;;;20.52;12.88;;;;;;;30.36;17.29;100866.03;1717968;82;21578;-65
2021/04/12 11:09:42;;;;;;;17.25;11.57;;;;;;;30.42;17.49;100865.97;1720556;82;21136;-53
2021/04/12 11:12:52;;;;;;;25.17;16.50;;;;;;;30.54;17.39;100864.88;1728111;82;21132;-54
2021/04/12 11:15:47;;;;;;;17.05;12.80;;;;;;;30.49;17.02;100868.50;1744279;82;21186;-53
2021/04/12 11:18:54;;;;;;;16.27;12.10;;;;;;;30.47;17.40;100867.78;1748548;81;21128;-53
2021/04/12 11:21:27;;;;;;;16.82;12.23;;;;;;;30.43;16.87;100866.33;1748583;82;21178;-65
2021/04/12 11:24:04;;;;;;;16.10;12.25;;;;;;;30.35;16.65;100863.44;1720051;82;21167;-66
2021/04/12 11:27:16;;;;;;;14.90;11.53;;;;;;;30.33;17.29;100869.50;1721127;82;21183;-54
2021/04/12 11:29:47;;;;;;;16.12;11.50;;;;;;;30.46;17.66;100861.14;1744203;81;21139;-54
2021/04/12 11:32:48;;;;;;;18.42;12.65;;;;;;;30.64;17.62;100866.81;1741066;81;21708;-66
2021/04/12 11:36:00;;;;;;;13.18;11.48;;;;;;;30.72;17.55;100865.59;1731655;83;21728;-65
2021/04/12 11:38:35;;;;;;;14.75;12.07;;;;;;;30.66;17.37;100867.53;1750968;81;21180;-54
2021/04/12 11:41:15;;;;;;;22.13;12.23;;;;;;;30.45;17.46;100865.70;1747303;81;21126;-65
2021/04/12 11:43:48;;;;;;;15.48;12.43;;;;;;;30.32;17.41;100869.13;1693724;84;21279;-66
2021/04/12 11:46:25;;;;;;;15.93;11.90;;;;;;;29.97;17.64;100859.91;1673838;84;21578;-66
2021/04/12 11:49:26;;;;;;;13.62;11.38;;;;;;;29.29;18.32;100867.48;1716308;83;21162;-66
2021/04/12 11:52:14;;;;;;;14.45;11.73;;;;;;;28.73;18.88;100858.48;1692041;84;21159;-66
2021/04/12 11:54:55;;;;;;;15.95;11.63;;;;;;;29.29;18.42;100851.22;1690826;85;21784;-53
2021/04/12 11:57:44;;;;;;;14.87;12.13;;;;;;;29.40;18.35;100854.40;1690937;85;21159;-53
2021/04/12 12:00:29;;;;;;;20.45;12.58;;;;;;;29.33;18.18;100854.03;1692027;84;21178;-53
2021/04/12 12:03:21;;;;;;;31.10;12.00;;;;;;;28.65;18.75;100861.83;1692642;83;21152;-67
2021/04/12 12:05:57;;;;;;;19.37;12.47;;;;;;;28.04;19.20;100866.59;1694324;84;21206;-53
2021/04/12 12:08:37;;;;;;;14.30;11.05;;;;;;;27.73;19.53;100854.61;1703052;83;21127;-65
2021/04/12 12:11:08;;;;;;;15.18;11.95;;;;;;;27.62;19.64;100858.16;1720958;83;21297;-52
2021/04/12 12:13:41;;;;;;;;;;;;;;;27.32;19.87;100855.44;1681798;84;21640;-52
2021/04/12 12:16:27;;;;;;;14.93;11.60;;;;;;;27.10;20.30;100855.70;1697059;83;20277;-52
2021/04/12 12:19:37;;;;;;;17.45;12.50;;;;;;;27.58;20.00;100858.89;1701321;83;21170;-53
2021/04/12 12:22:27;;;;;;;18.12;12.13;;;;;;;27.56;19.94;100858.62;1703254;83;21178;-52
2021/04/12 12:25:04;;;;;;;15.35;12.03;;;;;;;27.30;20.17;100864.16;1697733;83;21150;-53
2021/04/12 12:27:38;;;;;;;18.00;12.53;;;;;;;27.07;20.51;100864.03;1701243;83;21146;-66
2021/04/12 12:30:11;;;;;;;18.15;13.50;;;;;;;26.90;20.63;100863.93;1708021;83;21634;-53
2021/04/12 12:32:51;;;;;;;16.85;12.05;;;;;;;26.77;20.96;100869.81;1699104;84;21111;-51
2021/04/12 12:35:34;;;;;;;19.00;12.82;;;;;;;26.79;20.97;100866.52;1687515;84;21393;-66
2021/04/12 12:38:34;;;;;;;23.35;17.10;;;;;;;26.66;21.17;100866.09;1718335;82;21204;-51
2021/04/12 12:41:07;;;;;;;37.28;27.55;;;;;;;26.52;21.23;100867.56;1742476;82;21163;-66
2021/04/12 12:43:37;;;;;;;29.80;20.43;;;;;;;26.29;21.47;100859.27;1741643;82;21602;-52
2021/04/12 12:46:30;;;;;;;35.60;29.42;;;;;;;26.17;21.65;100862.36;1742166;82;21174;-52
2021/04/12 12:49:23;;;;;;;27.98;21.77;;;;;;;26.09;21.64;100862.00;1726890;81;21176;-53
2021/04/12 12:52:02;;;;;;;20.10;16.80;;;;;;;26.07;21.55;100862.12;1720350;81;21583;-52
2021/04/12 12:54:36;;;;;;;22.45;15.08;;;;;;;25.89;21.41;100868.32;1736148;82;21167;-52
2021/04/12 12:57:31;;;;;;;15.63;12.90;;;;;;;25.57;21.78;100867.36;1741209;81;21135;-52
2021/04/12 13:00:10;;;;;;;18.52;14.13;;;;;;;25.38;22.00;100872.61;1708995;83;21139;-66
2021/04/12 13:02:39;;;;;;;19.00;16.97;;;;;;;25.09;22.16;100873.19;1706386;82;21298;-66
2021/04/12 13:05:25;;;;;;;17.30;15.40;;;;;;;24.85;22.57;100875.20;1747305;82;21159;-66
2021/04/12 13:08:27;;;;;;;16.85;12.40;;;;;;;24.61;22.81;100874.41;1739618;81;21199;-53
2021/04/12 13:10:56;;;;;;;19.77;13.65;;;;;;;24.34;23.11;100874.33;1690443;84;21156;-68
2021/04/12 13:13:34;;;;;;;20.75;13.58;;;;;;;24.02;23.54;100879.42;1693992;84;21147;-68
2021/04/12 13:16:17;;;;;;;15.23;12.03;;;;;;;23.83;23.76;100871.58;1831351;77;22182;-66
2021/04/12 13:18:59;;;;;;;18.43;13.43;;;;;;;23.61;23.87;100866.63;1707781;83;21705;-66
2021/04/12 13:21:30;;;;;;;19.50;13.47;;;;;;;23.43;23.98;100876.16;1736196;82;21126;-52
2021/04/12 13:24:29;;;;;;;18.67;12.45;;;;;;;23.18;24.14;100881.55;1724286;82;21191;-52
2021/04/12 13:27:14;;;;;;;17.90;11.83;;;;;;;23.04;24.27;100878.81;1721057;83;21197;-53